sensor_id;sensor_type;location;lat;lon;timestamp;P1;durP1;ratioP1;P2;durP2;ratioP2
45620;SDS011;31345;51.522;10.702;2024-01-25T00:01:55;22.90;;;4.88;;
45620;SDS011;31345;51.522;10.702;2024-01-25T00:04:23;24.30;;;4.63;;
45620;SDS011;31345;51.522;10.702;2024-01-25T00:06:51;18.00;;;4.30;;
45620;SDS011;31345;51.522;10.702;2024-01-25T00:13:39;19.08;;;5.10;;
45620;SDS011;31345;51.522;10.702;2024-01-25T00:19:13;19.00;;;5.20;;
45620;SDS011;31345;51.522;10.702;2024-01-25T00:21:41;17.17;;;5.03;;
45620;SDS011;31345;51.522;10.702;2024-01-25T00:24:16;21.65;;;4.63;;
45620;SDS011;31345;51.522;10.702;2024-01-25T00:26:43;19.50;;;4.17;;
45620;SDS011;31345;51.522;10.702;2024-01-25T00:29:11;20.37;;;4.50;;
45620;SDS011;31345;51.522;10.702;2024-01-25T00:31:43;22.93;;;5.37;;
45620;SDS011;31345;51.522;10.702;2024-01-25T00:34:16;21.33;;;5.00;;
45620;SDS011;31345;51.522;10.702;2024-01-25T00:36:49;20.67;;;4.93;;
45620;SDS011;31345;51.522;10.702;2024-01-25T00:39:19;21.00;;;5.77;;
45620;SDS011;31345;51.522;10.702;2024-01-25T00:41:52;18.03;;;5.00;;
45620;SDS011;31345;51.522;10.702;2024-01-25T00:44:26;18.63;;;4.70;;
45620;SDS011;31345;51.522;10.702;2024-01-25T00:46:59;22.55;;;4.68;;
45620;SDS011;31345;51.522;10.702;2024-01-25T00:49:32;20.20;;;4.60;;
45620;SDS011;31345;51.522;10.702;2024-01-25T00:52:00;25.70;;;5.63;;
45620;SDS011;31345;51.522;10.702;2024-01-25T00:54:31;26.90;;;6.10;;
45620;SDS011;31345;51.522;10.702;2024-01-25T00:56:59;18.30;;;4.97;;
45620;SDS011;31345;51.522;10.702;2024-01-25T00:59:27;21.10;;;5.90;;
45620;SDS011;31345;51.522;10.702;2024-01-25T01:02:00;27.83;;;5.33;;
45620;SDS011;31345;51.522;10.702;2024-01-25T01:04:36;23.87;;;5.10;;
45620;SDS011;31345;51.522;10.702;2024-01-25T01:07:04;22.60;;;5.33;;
45620;SDS011;31345;51.522;10.702;2024-01-25T01:09:38;17.03;;;5.20;;
45620;SDS011;31345;51.522;10.702;2024-01-25T01:12:06;21.93;;;5.33;;
45620;SDS011;31345;51.522;10.702;2024-01-25T01:14:39;22.33;;;4.37;;
45620;SDS011;31345;51.522;10.702;2024-01-25T01:17:06;21.00;;;4.83;;
45620;SDS011;31345;51.522;10.702;2024-01-25T01:19:33;16.50;;;5.10;;
45620;SDS011;31345;51.522;10.702;2024-01-25T01:22:06;21.77;;;4.97;;
45620;SDS011;31345;51.522;10.702;2024-01-25T01:24:40;15.50;;;5.83;;
45620;SDS011;31345;51.522;10.702;2024-01-25T01:27:07;21.40;;;5.47;;
45620;SDS011;31345;51.522;10.702;2024-01-25T01:29:35;23.90;;;5.10;;
45620;SDS011;31345;51.522;10.702;2024-01-25T01:32:07;23.97;;;5.40;;
45620;SDS011;31345;51.522;10.702;2024-01-25T01:34:35;24.60;;;5.50;;
45620;SDS011;31345;51.522;10.702;2024-01-25T01:37:07;21.03;;;5.10;;
45620;SDS011;31345;51.522;10.702;2024-01-25T01:39:35;20.10;;;5.17;;
45620;SDS011;31345;51.522;10.702;2024-01-25T01:42:04;22.77;;;5.40;;
45620;SDS011;31345;51.522;10.702;2024-01-25T01:44:32;19.83;;;5.13;;
45620;SDS011;31345;51.522;10.702;2024-01-25T01:46:59;21.03;;;5.27;;
45620;SDS011;31345;51.522;10.702;2024-01-25T01:49:31;28.47;;;5.57;;
45620;SDS011;31345;51.522;10.702;2024-01-25T01:51:59;21.20;;;4.77;;
45620;SDS011;31345;51.522;10.702;2024-01-25T01:54:27;25.70;;;5.97;;
45620;SDS011;31345;51.522;10.702;2024-01-25T01:56:59;25.20;;;5.97;;
45620;SDS011;31345;51.522;10.702;2024-01-25T01:59:28;26.43;;;5.67;;
45620;SDS011;31345;51.522;10.702;2024-01-25T02:02:02;25.37;;;5.67;;
45620;SDS011;31345;51.522;10.702;2024-01-25T02:04:35;22.23;;;5.20;;
45620;SDS011;31345;51.522;10.702;2024-01-25T02:07:07;33.53;;;7.03;;
45620;SDS011;31345;51.522;10.702;2024-01-25T02:09:35;22.57;;;5.50;;
45620;SDS011;31345;51.522;10.702;2024-01-25T02:12:07;18.77;;;4.80;;
45620;SDS011;31345;51.522;10.702;2024-01-25T02:14:41;19.73;;;5.20;;
45620;SDS011;31345;51.522;10.702;2024-01-25T02:17:14;29.27;;;5.93;;
45620;SDS011;31345;51.522;10.702;2024-01-25T02:19:41;22.27;;;5.77;;
45620;SDS011;31345;51.522;10.702;2024-01-25T02:22:08;25.00;;;6.35;;
45620;SDS011;31345;51.522;10.702;2024-01-25T02:24:37;26.13;;;5.67;;
45620;SDS011;31345;51.522;10.702;2024-01-25T02:27:10;23.83;;;5.63;;
45620;SDS011;31345;51.522;10.702;2024-01-25T02:29:37;27.57;;;5.80;;
45620;SDS011;31345;51.522;10.702;2024-01-25T02:32:10;22.20;;;5.40;;
45620;SDS011;31345;51.522;10.702;2024-01-25T02:34:42;29.23;;;6.23;;
45620;SDS011;31345;51.522;10.702;2024-01-25T02:37:14;33.57;;;6.33;;
45620;SDS011;31345;51.522;10.702;2024-01-25T02:39:44;17.75;;;5.00;;
45620;SDS011;31345;51.522;10.702;2024-01-25T02:42:12;27.70;;;5.90;;
45620;SDS011;31345;51.522;10.702;2024-01-25T02:44:45;20.13;;;5.28;;
45620;SDS011;31345;51.522;10.702;2024-01-25T02:47:12;28.37;;;5.87;;
45620;SDS011;31345;51.522;10.702;2024-01-25T02:49:47;21.07;;;5.30;;
45620;SDS011;31345;51.522;10.702;2024-01-25T02:52:22;22.77;;;5.05;;
45620;SDS011;31345;51.522;10.702;2024-01-25T02:54:51;25.45;;;5.15;;
45620;SDS011;31345;51.522;10.702;2024-01-25T02:57:23;21.75;;;4.72;;
45620;SDS011;31345;51.522;10.702;2024-01-25T02:59:51;23.05;;;4.80;;
45620;SDS011;31345;51.522;10.702;2024-01-25T03:02:18;28.47;;;5.93;;
45620;SDS011;31345;51.522;10.702;2024-01-25T03:04:46;16.92;;;4.72;;
45620;SDS011;31345;51.522;10.702;2024-01-25T03:07:18;17.17;;;4.77;;
45620;SDS011;31345;51.522;10.702;2024-01-25T03:09:52;27.52;;;5.88;;
45620;SDS011;31345;51.522;10.702;2024-01-25T03:12:19;23.80;;;5.80;;
45620;SDS011;31345;51.522;10.702;2024-01-25T03:14:47;21.97;;;5.90;;
45620;SDS011;31345;51.522;10.702;2024-01-25T03:17:20;24.52;;;5.28;;
45620;SDS011;31345;51.522;10.702;2024-01-25T03:19:52;22.53;;;5.77;;
45620;SDS011;31345;51.522;10.702;2024-01-25T03:22:20;18.38;;;5.90;;
45620;SDS011;31345;51.522;10.702;2024-01-25T03:24:54;21.77;;;5.00;;
45620;SDS011;31345;51.522;10.702;2024-01-25T03:27:22;24.40;;;5.13;;
45620;SDS011;31345;51.522;10.702;2024-01-25T03:29:54;22.10;;;4.97;;
45620;SDS011;31345;51.522;10.702;2024-01-25T03:32:26;21.95;;;5.68;;
45620;SDS011;31345;51.522;10.702;2024-01-25T03:34:54;21.33;;;5.10;;
45620;SDS011;31345;51.522;10.702;2024-01-25T03:37:26;21.23;;;4.57;;
45620;SDS011;31345;51.522;10.702;2024-01-25T03:39:55;18.50;;;5.00;;
45620;SDS011;31345;51.522;10.702;2024-01-25T03:42:23;18.00;;;5.30;;
45620;SDS011;31345;51.522;10.702;2024-01-25T03:44:51;19.70;;;4.47;;
45620;SDS011;31345;51.522;10.702;2024-01-25T03:47:19;15.90;;;5.13;;
45620;SDS011;31345;51.522;10.702;2024-01-25T03:49:51;22.33;;;4.87;;
45620;SDS011;31345;51.522;10.702;2024-01-25T03:52:24;22.10;;;5.30;;
45620;SDS011;31345;51.522;10.702;2024-01-25T03:54:51;25.53;;;4.70;;
45620;SDS011;31345;51.522;10.702;2024-01-25T03:57:28;20.33;;;4.47;;
45620;SDS011;31345;51.522;10.702;2024-01-25T03:59:58;21.63;;;4.93;;
45620;SDS011;31345;51.522;10.702;2024-01-25T04:02:30;17.80;;;4.57;;
45620;SDS011;31345;51.522;10.702;2024-01-25T04:05:03;19.20;;;4.50;;
45620;SDS011;31345;51.522;10.702;2024-01-25T04:07:31;16.03;;;4.23;;
45620;SDS011;31345;51.522;10.702;2024-01-25T04:09:58;18.90;;;4.40;;
45620;SDS011;31345;51.522;10.702;2024-01-25T04:12:27;25.13;;;5.72;;
45620;SDS011;31345;51.522;10.702;2024-01-25T04:15:00;23.90;;;5.10;;
45620;SDS011;31345;51.522;10.702;2024-01-25T04:17:27;18.83;;;4.53;;
45620;SDS011;31345;51.522;10.702;2024-01-25T04:19:55;16.03;;;4.17;;
45620;SDS011;31345;51.522;10.702;2024-01-25T04:22:22;19.17;;;5.20;;
45620;SDS011;31345;51.522;10.702;2024-01-25T04:24:49;27.00;;;4.93;;
45620;SDS011;31345;51.522;10.702;2024-01-25T04:27:22;21.07;;;4.30;;
45620;SDS011;31345;51.522;10.702;2024-01-25T04:29:56;22.97;;;4.93;;
45620;SDS011;31345;51.522;10.702;2024-01-25T04:32:28;18.37;;;4.53;;
45620;SDS011;31345;51.522;10.702;2024-01-25T04:35:00;19.40;;;4.87;;
45620;SDS011;31345;51.522;10.702;2024-01-25T04:37:33;18.50;;;4.30;;
45620;SDS011;31345;51.522;10.702;2024-01-25T04:40:01;18.03;;;4.87;;
45620;SDS011;31345;51.522;10.702;2024-01-25T04:42:33;18.70;;;4.67;;
45620;SDS011;31345;51.522;10.702;2024-01-25T04:45:02;18.03;;;5.07;;
45620;SDS011;31345;51.522;10.702;2024-01-25T04:47:30;18.70;;;4.07;;
45620;SDS011;31345;51.522;10.702;2024-01-25T04:50:03;19.67;;;4.13;;
45620;SDS011;31345;51.522;10.702;2024-01-25T04:52:31;16.85;;;4.43;;
45620;SDS011;31345;51.522;10.702;2024-01-25T04:54:58;21.98;;;4.38;;
45620;SDS011;31345;51.522;10.702;2024-01-25T04:57:31;24.30;;;4.57;;
45620;SDS011;31345;51.522;10.702;2024-01-25T05:00:12;15.40;;;4.47;;
45620;SDS011;31345;51.522;10.702;2024-01-25T05:03:20;29.83;;;5.60;;
45620;SDS011;31345;51.522;10.702;2024-01-25T05:05:55;20.23;;;4.22;;
45620;SDS011;31345;51.522;10.702;2024-01-25T05:08:28;17.48;;;4.40;;
45620;SDS011;31345;51.522;10.702;2024-01-25T05:12:12;18.50;;;3.63;;
45620;SDS011;31345;51.522;10.702;2024-01-25T05:14:39;17.98;;;4.97;;
45620;SDS011;31345;51.522;10.702;2024-01-25T05:17:09;18.13;;;4.53;;
45620;SDS011;31345;51.522;10.702;2024-01-25T05:19:36;21.20;;;5.22;;
45620;SDS011;31345;51.522;10.702;2024-01-25T05:22:09;13.23;;;3.70;;
45620;SDS011;31345;51.522;10.702;2024-01-25T05:24:36;15.55;;;3.70;;
45620;SDS011;31345;51.522;10.702;2024-01-25T05:27:09;15.98;;;4.60;;
45620;SDS011;31345;51.522;10.702;2024-01-25T05:29:36;22.40;;;4.65;;
45620;SDS011;31345;51.522;10.702;2024-01-25T05:32:10;15.57;;;3.83;;
45620;SDS011;31345;51.522;10.702;2024-01-25T05:34:37;14.98;;;4.28;;
45620;SDS011;31345;51.522;10.702;2024-01-25T05:37:10;19.00;;;4.37;;
45620;SDS011;31345;51.522;10.702;2024-01-25T05:39:40;17.97;;;4.20;;
45620;SDS011;31345;51.522;10.702;2024-01-25T05:42:07;19.58;;;4.20;;
45620;SDS011;31345;51.522;10.702;2024-01-25T05:44:40;20.38;;;4.40;;
45620;SDS011;31345;51.522;10.702;2024-01-25T05:47:09;18.73;;;4.22;;
45620;SDS011;31345;51.522;10.702;2024-01-25T05:49:37;17.70;;;3.73;;
45620;SDS011;31345;51.522;10.702;2024-01-25T05:52:05;16.95;;;3.83;;
45620;SDS011;31345;51.522;10.702;2024-01-25T05:54:39;15.35;;;3.95;;
45620;SDS011;31345;51.522;10.702;2024-01-25T05:57:25;20.92;;;3.97;;
45620;SDS011;31345;51.522;10.702;2024-01-25T05:59:54;12.52;;;3.78;;
45620;SDS011;31345;51.522;10.702;2024-01-25T06:02:27;18.98;;;4.45;;
45620;SDS011;31345;51.522;10.702;2024-01-25T06:04:55;15.20;;;4.20;;
45620;SDS011;31345;51.522;10.702;2024-01-25T06:07:24;19.33;;;4.17;;
45620;SDS011;31345;51.522;10.702;2024-01-25T06:09:51;16.80;;;3.85;;
45620;SDS011;31345;51.522;10.702;2024-01-25T06:12:19;16.10;;;4.43;;
45620;SDS011;31345;51.522;10.702;2024-01-25T06:14:47;19.93;;;5.27;;
45620;SDS011;31345;51.522;10.702;2024-01-25T06:17:22;17.75;;;3.75;;
45620;SDS011;31345;51.522;10.702;2024-01-25T06:19:51;13.57;;;4.10;;
45620;SDS011;31345;51.522;10.702;2024-01-25T06:22:23;24.52;;;5.05;;
45620;SDS011;31345;51.522;10.702;2024-01-25T06:24:51;18.30;;;4.90;;
45620;SDS011;31345;51.522;10.702;2024-01-25T06:27:17;19.93;;;4.20;;
45620;SDS011;31345;51.522;10.702;2024-01-25T06:29:49;22.08;;;5.32;;
45620;SDS011;31345;51.522;10.702;2024-01-25T06:32:22;17.67;;;3.95;;
45620;SDS011;31345;51.522;10.702;2024-01-25T06:34:51;11.32;;;4.00;;
45620;SDS011;31345;51.522;10.702;2024-01-25T06:37:19;18.50;;;4.28;;
45620;SDS011;31345;51.522;10.702;2024-01-25T06:39:51;16.58;;;4.25;;
45620;SDS011;31345;51.522;10.702;2024-01-25T06:42:19;19.63;;;5.10;;
45620;SDS011;31345;51.522;10.702;2024-01-25T06:44:46;23.07;;;4.50;;
45620;SDS011;31345;51.522;10.702;2024-01-25T06:47:13;12.95;;;4.07;;
45620;SDS011;31345;51.522;10.702;2024-01-25T06:49:41;18.23;;;4.05;;
45620;SDS011;31345;51.522;10.702;2024-01-25T06:52:10;17.03;;;4.07;;
45620;SDS011;31345;51.522;10.702;2024-01-25T06:54:38;17.10;;;3.77;;
45620;SDS011;31345;51.522;10.702;2024-01-25T06:57:05;19.13;;;4.13;;
45620;SDS011;31345;51.522;10.702;2024-01-25T06:59:33;13.23;;;3.70;;
45620;SDS011;31345;51.522;10.702;2024-01-25T07:02:05;16.47;;;3.77;;
45620;SDS011;31345;51.522;10.702;2024-01-25T07:04:33;15.60;;;3.88;;
45620;SDS011;31345;51.522;10.702;2024-01-25T07:07:05;12.97;;;3.60;;
45620;SDS011;31345;51.522;10.702;2024-01-25T07:09:34;15.17;;;4.20;;
45620;SDS011;31345;51.522;10.702;2024-01-25T07:12:07;17.00;;;4.37;;
45620;SDS011;31345;51.522;10.702;2024-01-25T07:14:34;16.50;;;3.23;;
45620;SDS011;31345;51.522;10.702;2024-01-25T07:17:02;17.40;;;3.30;;
45620;SDS011;31345;51.522;10.702;2024-01-25T07:19:30;13.80;;;3.20;;
45620;SDS011;31345;51.522;10.702;2024-01-25T07:22:02;16.60;;;4.18;;
45620;SDS011;31345;51.522;10.702;2024-01-25T07:24:30;19.17;;;4.10;;
45620;SDS011;31345;51.522;10.702;2024-01-25T07:27:04;19.70;;;4.63;;
45620;SDS011;31345;51.522;10.702;2024-01-25T07:29:37;17.65;;;3.92;;
45620;SDS011;31345;51.522;10.702;2024-01-25T07:32:09;16.60;;;3.43;;
45620;SDS011;31345;51.522;10.702;2024-01-25T07:34:37;10.38;;;3.13;;
45620;SDS011;31345;51.522;10.702;2024-01-25T07:37:05;17.15;;;3.92;;
45620;SDS011;31345;51.522;10.702;2024-01-25T07:39:32;13.50;;;2.90;;
45620;SDS011;31345;51.522;10.702;2024-01-25T07:41:59;14.37;;;3.07;;
45620;SDS011;31345;51.522;10.702;2024-01-25T07:44:33;19.00;;;3.40;;
45620;SDS011;31345;51.522;10.702;2024-01-25T07:47:01;13.80;;;3.47;;
45620;SDS011;31345;51.522;10.702;2024-01-25T07:49:28;15.87;;;3.30;;
45620;SDS011;31345;51.522;10.702;2024-01-25T07:51:56;18.17;;;3.53;;
45620;SDS011;31345;51.522;10.702;2024-01-25T07:54:24;10.53;;;3.20;;
45620;SDS011;31345;51.522;10.702;2024-01-25T07:56:52;17.77;;;3.85;;
45620;SDS011;31345;51.522;10.702;2024-01-25T07:59:27;14.40;;;2.87;;
45620;SDS011;31345;51.522;10.702;2024-01-25T08:01:57;14.00;;;3.58;;
45620;SDS011;31345;51.522;10.702;2024-01-25T08:04:31;16.77;;;3.10;;
45620;SDS011;31345;51.522;10.702;2024-01-25T08:06:58;10.25;;;3.78;;
45620;SDS011;31345;51.522;10.702;2024-01-25T08:09:35;12.48;;;3.70;;
45620;SDS011;31345;51.522;10.702;2024-01-25T08:12:02;10.45;;;3.13;;
45620;SDS011;31345;51.522;10.702;2024-01-25T08:14:30;9.52;;;2.75;;
45620;SDS011;31345;51.522;10.702;2024-01-25T08:16:59;14.95;;;3.83;;
45620;SDS011;31345;51.522;10.702;2024-01-25T08:19:32;12.48;;;3.40;;
45620;SDS011;31345;51.522;10.702;2024-01-25T08:22:04;13.13;;;3.60;;
45620;SDS011;31345;51.522;10.702;2024-01-25T08:24:32;10.87;;;3.20;;
45620;SDS011;31345;51.522;10.702;2024-01-25T08:27:04;19.50;;;4.13;;
45620;SDS011;31345;51.522;10.702;2024-01-25T08:29:34;14.40;;;3.25;;
45620;SDS011;31345;51.522;10.702;2024-01-25T08:32:05;12.63;;;3.35;;
45620;SDS011;31345;51.522;10.702;2024-01-25T08:34:39;16.08;;;4.55;;
45620;SDS011;31345;51.522;10.702;2024-01-25T08:37:13;15.05;;;3.65;;
45620;SDS011;31345;51.522;10.702;2024-01-25T08:39:46;14.60;;;3.10;;
45620;SDS011;31345;51.522;10.702;2024-01-25T08:42:21;13.80;;;3.47;;
45620;SDS011;31345;51.522;10.702;2024-01-25T08:44:55;17.67;;;3.90;;
45620;SDS011;31345;51.522;10.702;2024-01-25T08:47:24;10.27;;;3.80;;
45620;SDS011;31345;51.522;10.702;2024-01-25T08:49:57;13.50;;;3.58;;
45620;SDS011;31345;51.522;10.702;2024-01-25T08:52:26;12.60;;;3.45;;
45620;SDS011;31345;51.522;10.702;2024-01-25T08:54:53;11.88;;;2.75;;
45620;SDS011;31345;51.522;10.702;2024-01-25T08:57:20;12.18;;;3.47;;
45620;SDS011;31345;51.522;10.702;2024-01-25T08:59:53;16.20;;;3.28;;
45620;SDS011;31345;51.522;10.702;2024-01-25T09:02:27;13.00;;;3.08;;
45620;SDS011;31345;51.522;10.702;2024-01-25T09:05:00;16.90;;;3.05;;
45620;SDS011;31345;51.522;10.702;2024-01-25T09:07:28;14.30;;;3.35;;
45620;SDS011;31345;51.522;10.702;2024-01-25T09:09:55;16.75;;;3.70;;
45620;SDS011;31345;51.522;10.702;2024-01-25T09:12:22;11.57;;;3.67;;
45620;SDS011;31345;51.522;10.702;2024-01-25T09:14:55;14.45;;;3.65;;
45620;SDS011;31345;51.522;10.702;2024-01-25T09:17:24;12.68;;;3.13;;
45620;SDS011;31345;51.522;10.702;2024-01-25T09:20:02;16.80;;;3.75;;
45620;SDS011;31345;51.522;10.702;2024-01-25T09:22:34;16.38;;;3.70;;
45620;SDS011;31345;51.522;10.702;2024-01-25T09:25:08;11.30;;;3.00;;
45620;SDS011;31345;51.522;10.702;2024-01-25T09:27:36;20.67;;;4.25;;
45620;SDS011;31345;51.522;10.702;2024-01-25T09:30:09;11.02;;;3.92;;
45620;SDS011;31345;51.522;10.702;2024-01-25T09:32:37;13.52;;;4.13;;
45620;SDS011;31345;51.522;10.702;2024-01-25T09:35:06;15.40;;;3.47;;
45620;SDS011;31345;51.522;10.702;2024-01-25T09:37:47;19.33;;;3.58;;
45620;SDS011;31345;51.522;10.702;2024-01-25T09:40:18;18.70;;;3.85;;
45620;SDS011;31345;51.522;10.702;2024-01-25T09:42:59;15.75;;;3.72;;
45620;SDS011;31345;51.522;10.702;2024-01-25T09:45:26;21.40;;;4.25;;
45620;SDS011;31345;51.522;10.702;2024-01-25T09:47:54;17.95;;;3.80;;
45620;SDS011;31345;51.522;10.702;2024-01-25T09:50:22;17.92;;;3.50;;
45620;SDS011;31345;51.522;10.702;2024-01-25T09:52:55;16.48;;;4.47;;
45620;SDS011;31345;51.522;10.702;2024-01-25T09:55:26;19.20;;;4.07;;
45620;SDS011;31345;51.522;10.702;2024-01-25T09:57:56;18.33;;;4.35;;
45620;SDS011;31345;51.522;10.702;2024-01-25T10:00:24;12.67;;;4.23;;
45620;SDS011;31345;51.522;10.702;2024-01-25T10:02:52;13.35;;;3.75;;
45620;SDS011;31345;51.522;10.702;2024-01-25T10:05:26;15.27;;;3.78;;
45620;SDS011;31345;51.522;10.702;2024-01-25T10:07:58;17.52;;;3.78;;
45620;SDS011;31345;51.522;10.702;2024-01-25T10:10:32;13.55;;;3.90;;
45620;SDS011;31345;51.522;10.702;2024-01-25T10:13:00;20.10;;;4.72;;
45620;SDS011;31345;51.522;10.702;2024-01-25T10:15:33;24.73;;;3.90;;
45620;SDS011;31345;51.522;10.702;2024-01-25T10:18:05;8.43;;;3.28;;
45620;SDS011;31345;51.522;10.702;2024-01-25T10:20:45;15.35;;;3.97;;
45620;SDS011;31345;51.522;10.702;2024-01-25T10:23:17;16.88;;;3.53;;
45620;SDS011;31345;51.522;10.702;2024-01-25T10:25:45;17.25;;;3.17;;
45620;SDS011;31345;51.522;10.702;2024-01-25T10:28:17;15.82;;;3.75;;
45620;SDS011;31345;51.522;10.702;2024-01-25T10:30:45;15.07;;;3.42;;
45620;SDS011;31345;51.522;10.702;2024-01-25T10:33:19;12.70;;;3.38;;
45620;SDS011;31345;51.522;10.702;2024-01-25T10:35:48;14.82;;;4.10;;
45620;SDS011;31345;51.522;10.702;2024-01-25T10:38:23;15.85;;;4.57;;
45620;SDS011;31345;51.522;10.702;2024-01-25T10:40:53;15.10;;;4.00;;
45620;SDS011;31345;51.522;10.702;2024-01-25T10:43:26;10.02;;;3.53;;
45620;SDS011;31345;51.522;10.702;2024-01-25T10:45:56;20.13;;;6.15;;
45620;SDS011;31345;51.522;10.702;2024-01-25T10:48:24;17.90;;;7.35;;
45620;SDS011;31345;51.522;10.702;2024-01-25T10:50:58;27.88;;;8.65;;
45620;SDS011;31345;51.522;10.702;2024-01-25T10:53:33;15.93;;;4.65;;
45620;SDS011;31345;51.522;10.702;2024-01-25T10:56:02;29.58;;;11.55;;
45620;SDS011;31345;51.522;10.702;2024-01-25T10:58:35;22.65;;;6.75;;
45620;SDS011;31345;51.522;10.702;2024-01-25T11:01:02;21.05;;;6.57;;
45620;SDS011;31345;51.522;10.702;2024-01-25T11:03:35;20.77;;;9.60;;
45620;SDS011;31345;51.522;10.702;2024-01-25T11:06:09;28.08;;;8.85;;
45620;SDS011;31345;51.522;10.702;2024-01-25T11:08:38;21.42;;;5.80;;
45620;SDS011;31345;51.522;10.702;2024-01-25T11:11:05;29.20;;;9.77;;
45620;SDS011;31345;51.522;10.702;2024-01-25T11:13:35;28.88;;;12.02;;
45620;SDS011;31345;51.522;10.702;2024-01-25T11:16:12;30.40;;;14.95;;
45620;SDS011;31345;51.522;10.702;2024-01-25T11:18:47;37.28;;;10.55;;
45620;SDS011;31345;51.522;10.702;2024-01-25T11:21:24;18.58;;;5.60;;
45620;SDS011;31345;51.522;10.702;2024-01-25T11:23:59;12.93;;;4.78;;
45620;SDS011;31345;51.522;10.702;2024-01-25T11:26:27;20.77;;;6.85;;
45620;SDS011;31345;51.522;10.702;2024-01-25T11:28:55;8.63;;;3.70;;
45620;SDS011;31345;51.522;10.702;2024-01-25T11:31:31;13.88;;;4.75;;
45620;SDS011;31345;51.522;10.702;2024-01-25T11:33:58;16.75;;;4.72;;
45620;SDS011;31345;51.522;10.702;2024-01-25T11:36:33;14.30;;;4.03;;
45620;SDS011;31345;51.522;10.702;2024-01-25T11:39:05;14.05;;;3.65;;
45620;SDS011;31345;51.522;10.702;2024-01-25T11:41:33;14.00;;;3.53;;
45620;SDS011;31345;51.522;10.702;2024-01-25T11:44:00;21.23;;;4.95;;
45620;SDS011;31345;51.522;10.702;2024-01-25T11:46:28;18.83;;;5.50;;
45620;SDS011;31345;51.522;10.702;2024-01-25T11:48:57;33.33;;;11.68;;
45620;SDS011;31345;51.522;10.702;2024-01-25T11:51:25;32.55;;;11.57;;
45620;SDS011;31345;51.522;10.702;2024-01-25T11:53:53;13.95;;;4.65;;
45620;SDS011;31345;51.522;10.702;2024-01-25T11:56:23;20.08;;;7.03;;
45620;SDS011;31345;51.522;10.702;2024-01-25T11:58:53;20.98;;;5.38;;
45620;SDS011;31345;51.522;10.702;2024-01-25T12:01:27;16.40;;;4.63;;
45620;SDS011;31345;51.522;10.702;2024-01-25T12:03:56;17.98;;;7.32;;
45620;SDS011;31345;51.522;10.702;2024-01-25T12:06:28;15.93;;;5.03;;
45620;SDS011;31345;51.522;10.702;2024-01-25T12:09:07;15.00;;;4.95;;
45620;SDS011;31345;51.522;10.702;2024-01-25T12:11:35;17.75;;;4.28;;
45620;SDS011;31345;51.522;10.702;2024-01-25T12:14:09;15.73;;;4.05;;
45620;SDS011;31345;51.522;10.702;2024-01-25T12:16:37;18.23;;;4.10;;
45620;SDS011;31345;51.522;10.702;2024-01-25T12:19:04;17.45;;;4.25;;
45620;SDS011;31345;51.522;10.702;2024-01-25T12:21:32;17.90;;;4.25;;
45620;SDS011;31345;51.522;10.702;2024-01-25T12:24:06;14.20;;;4.25;;
45620;SDS011;31345;51.522;10.702;2024-01-25T12:26:35;16.27;;;4.55;;
45620;SDS011;31345;51.522;10.702;2024-01-25T12:29:03;15.90;;;4.00;;
45620;SDS011;31345;51.522;10.702;2024-01-25T12:31:31;13.05;;;3.58;;
45620;SDS011;31345;51.522;10.702;2024-01-25T12:33:59;18.80;;;4.07;;
45620;SDS011;31345;51.522;10.702;2024-01-25T12:36:27;17.58;;;3.65;;
45620;SDS011;31345;51.522;10.702;2024-01-25T12:39:00;17.90;;;3.83;;
45620;SDS011;31345;51.522;10.702;2024-01-25T12:41:35;12.45;;;3.90;;
45620;SDS011;31345;51.522;10.702;2024-01-25T12:44:09;18.38;;;4.55;;
45620;SDS011;31345;51.522;10.702;2024-01-25T12:46:37;10.07;;;3.65;;
45620;SDS011;31345;51.522;10.702;2024-01-25T12:49:09;15.05;;;4.90;;
45620;SDS011;31345;51.522;10.702;2024-01-25T12:51:37;12.20;;;4.00;;
45620;SDS011;31345;51.522;10.702;2024-01-25T12:54:04;19.20;;;4.45;;
45620;SDS011;31345;51.522;10.702;2024-01-25T12:56:32;12.35;;;3.90;;
45620;SDS011;31345;51.522;10.702;2024-01-25T12:59:00;14.95;;;3.80;;
45620;SDS011;31345;51.522;10.702;2024-01-25T13:01:33;16.23;;;4.25;;
45620;SDS011;31345;51.522;10.702;2024-01-25T13:04:01;18.77;;;4.78;;
45620;SDS011;31345;51.522;10.702;2024-01-25T13:06:34;10.07;;;3.03;;
45620;SDS011;31345;51.522;10.702;2024-01-25T13:09:06;14.75;;;3.70;;
45620;SDS011;31345;51.522;10.702;2024-01-25T13:11:35;14.68;;;4.15;;
45620;SDS011;31345;51.522;10.702;2024-01-25T13:14:02;14.43;;;3.67;;
45620;SDS011;31345;51.522;10.702;2024-01-25T13:16:35;16.15;;;4.18;;
45620;SDS011;31345;51.522;10.702;2024-01-25T13:19:02;15.75;;;4.38;;
45620;SDS011;31345;51.522;10.702;2024-01-25T13:21:30;13.50;;;3.60;;
45620;SDS011;31345;51.522;10.702;2024-01-25T13:24:02;17.58;;;4.38;;
45620;SDS011;31345;51.522;10.702;2024-01-25T13:26:30;16.48;;;4.63;;
45620;SDS011;31345;51.522;10.702;2024-01-25T13:28:59;14.98;;;4.00;;
45620;SDS011;31345;51.522;10.702;2024-01-25T13:31:26;14.82;;;3.80;;
45620;SDS011;31345;51.522;10.702;2024-01-25T13:33:54;14.68;;;4.07;;
45620;SDS011;31345;51.522;10.702;2024-01-25T13:36:21;9.82;;;4.30;;
45620;SDS011;31345;51.522;10.702;2024-01-25T13:38:53;10.73;;;3.92;;
45620;SDS011;31345;51.522;10.702;2024-01-25T13:41:21;11.45;;;3.65;;
45620;SDS011;31345;51.522;10.702;2024-01-25T13:43:53;10.00;;;3.45;;
45620;SDS011;31345;51.522;10.702;2024-01-25T13:46:22;17.42;;;4.50;;
45620;SDS011;31345;51.522;10.702;2024-01-25T13:48:54;19.45;;;5.05;;
45620;SDS011;31345;51.522;10.702;2024-01-25T13:51:27;19.55;;;5.13;;
45620;SDS011;31345;51.522;10.702;2024-01-25T13:53:54;11.65;;;3.88;;
45620;SDS011;31345;51.522;10.702;2024-01-25T13:56:22;15.98;;;4.97;;
45620;SDS011;31345;51.522;10.702;2024-01-25T13:58:49;13.30;;;4.03;;
45620;SDS011;31345;51.522;10.702;2024-01-25T14:01:17;14.45;;;4.10;;
45620;SDS011;31345;51.522;10.702;2024-01-25T14:03:46;16.20;;;4.20;;
45620;SDS011;31345;51.522;10.702;2024-01-25T14:06:19;17.25;;;4.88;;
45620;SDS011;31345;51.522;10.702;2024-01-25T14:08:46;18.48;;;4.05;;
45620;SDS011;31345;51.522;10.702;2024-01-25T14:11:19;16.77;;;4.55;;
45620;SDS011;31345;51.522;10.702;2024-01-25T14:13:51;21.40;;;3.95;;
45620;SDS011;31345;51.522;10.702;2024-01-25T14:16:23;20.33;;;3.92;;
45620;SDS011;31345;51.522;10.702;2024-01-25T14:18:57;14.45;;;4.35;;
45620;SDS011;31345;51.522;10.702;2024-01-25T14:21:25;14.27;;;4.60;;
45620;SDS011;31345;51.522;10.702;2024-01-25T14:23:54;15.18;;;3.65;;
45620;SDS011;31345;51.522;10.702;2024-01-25T14:26:26;10.20;;;3.70;;
45620;SDS011;31345;51.522;10.702;2024-01-25T14:28:59;14.45;;;4.63;;
45620;SDS011;31345;51.522;10.702;2024-01-25T14:31:26;15.13;;;3.75;;
45620;SDS011;31345;51.522;10.702;2024-01-25T14:33:54;12.90;;;3.47;;
45620;SDS011;31345;51.522;10.702;2024-01-25T14:36:22;20.70;;;5.10;;
45620;SDS011;31345;51.522;10.702;2024-01-25T14:38:55;14.80;;;4.65;;
45620;SDS011;31345;51.522;10.702;2024-01-25T14:41:22;19.83;;;5.28;;
45620;SDS011;31345;51.522;10.702;2024-01-25T14:43:55;12.35;;;4.05;;
45620;SDS011;31345;51.522;10.702;2024-01-25T14:46:22;14.38;;;4.85;;
45620;SDS011;31345;51.522;10.702;2024-01-25T14:48:49;13.38;;;4.55;;